Oosterhout, Netherlands
Current Conditions -  °F | °C
As of 11:56 AM on Friday 19 Dec 2014 (Local Time) from EHGR Reporting Station
Light Rain Light Rain  
Wind Chill: 43°   Ceiling: 3700
Heat Index: 48°   Visibility: 6mi
Dew Point: 46°   Wind: 14mph
Humidity: 93%   Direction: 290°WNW
Pressure: 29.85"   Gusts: NA
Location:  51.65°N, 4.86°E
Report Text: EHGR 191056Z AUTO 29012KT 9999 -RA FEW005 OVC037 09/08 Q1011 BLU 23015G30KT 4500 -RA SCT007 OVC012 TEMPO 3000 SHRA SCT005 BKN008 SCT015CB
Loading
Personal Weather Stations






























Interactive Weather Map New forecast layout! Learn more

10-Day Weather Forecast

Advertisements
Track Severe Weather on mobile